createdAt,value
2018-10-02T00:01:09.896Z,8.30
2018-10-02T00:03:38.256Z,8.20
2018-10-02T00:06:07.096Z,8.20
2018-10-02T00:08:35.444Z,8.20
2018-10-02T00:11:09.352Z,8.10
2018-10-02T00:13:43.248Z,8.10
2018-10-02T00:16:11.673Z,8.10
2018-10-02T00:18:40.244Z,8.10
2018-10-02T00:21:09.518Z,8.00
2018-10-02T00:23:37.959Z,8.00
2018-10-02T00:26:06.321Z,7.90
2018-10-02T00:28:34.734Z,7.90
2018-10-02T00:31:03.067Z,7.90
2018-10-02T00:33:31.432Z,7.90
2018-10-02T00:35:59.787Z,7.90
2018-10-02T00:38:28.117Z,7.90
2018-10-02T00:40:56.505Z,7.90
2018-10-02T00:43:24.824Z,7.80
2018-10-02T00:45:53.169Z,7.70
2018-10-02T00:48:21.527Z,7.70
2018-10-02T00:50:49.908Z,7.70
2018-10-02T00:53:18.266Z,7.70
2018-10-02T00:55:46.604Z,7.70
2018-10-02T00:58:14.984Z,7.70
2018-10-02T01:00:43.924Z,7.60
2018-10-02T01:03:12.334Z,7.60
2018-10-02T01:05:40.671Z,7.50
2018-10-02T01:08:09.016Z,7.50
2018-10-02T01:10:37.383Z,7.40
2018-10-02T01:13:06.587Z,7.30
2018-10-02T01:15:34.976Z,7.30
2018-10-02T01:18:03.312Z,7.20
2018-10-02T01:20:31.675Z,7.20
2018-10-02T01:23:00.028Z,7.20
2018-10-02T01:25:28.414Z,7.10
2018-10-02T01:27:56.751Z,7.10
2018-10-02T01:30:25.083Z,7.00
2018-10-02T01:32:53.450Z,7.00
2018-10-02T01:35:21.804Z,7.00
2018-10-02T01:37:50.116Z,6.90
2018-10-02T01:40:18.483Z,6.90
2018-10-02T01:42:46.824Z,6.90
2018-10-02T01:45:15.175Z,6.90
2018-10-02T01:47:43.516Z,6.80
2018-10-02T01:50:11.903Z,6.70
2018-10-02T01:52:40.260Z,6.70
2018-10-02T01:55:08.656Z,6.70
2018-10-02T01:57:36.984Z,6.70
2018-10-02T02:00:05.773Z,6.60
2018-10-02T02:02:34.153Z,6.50
2018-10-02T02:05:02.524Z,6.50
2018-10-02T02:07:30.884Z,6.50
2018-10-02T02:09:59.230Z,6.50
2018-10-02T02:12:27.560Z,6.50
2018-10-02T02:14:55.980Z,6.40
2018-10-02T02:17:24.319Z,6.40
2018-10-02T02:19:52.676Z,6.50
2018-10-02T02:22:21.032Z,6.40
2018-10-02T02:24:49.395Z,6.40
2018-10-02T02:27:17.762Z,6.40
2018-10-02T02:29:46.100Z,6.40
2018-10-02T02:32:14.440Z,6.40
2018-10-02T02:34:42.755Z,6.30
2018-10-02T02:37:11.155Z,6.30
2018-10-02T02:39:39.455Z,6.30
2018-10-02T02:42:07.789Z,6.20
2018-10-02T02:44:36.129Z,6.20
2018-10-02T02:47:09.832Z,6.20
2018-10-02T02:49:43.504Z,6.20
2018-10-02T02:52:12.600Z,6.20
2018-10-02T02:54:40.955Z,6.20
2018-10-02T02:57:09.320Z,6.20
2018-10-02T02:59:37.735Z,6.20
2018-10-02T03:02:06.114Z,6.30
2018-10-02T03:04:34.449Z,6.30
2018-10-02T03:07:02.795Z,6.30
2018-10-02T03:09:31.108Z,6.30
2018-10-02T03:11:59.461Z,6.30
2018-10-02T03:14:27.831Z,6.40
2018-10-02T03:16:56.211Z,6.40
2018-10-02T03:19:24.572Z,6.50
2018-10-02T03:21:52.965Z,6.50
2018-10-02T03:24:21.250Z,6.50
2018-10-02T03:26:49.585Z,6.50
2018-10-02T03:29:17.936Z,6.50
2018-10-02T03:31:46.285Z,6.60
2018-10-02T03:34:14.632Z,6.60
2018-10-02T03:36:42.997Z,6.60
2018-10-02T03:39:11.328Z,6.70
2018-10-02T03:41:39.676Z,6.70
2018-10-02T03:44:08.035Z,6.80
2018-10-02T03:46:36.376Z,6.80
2018-10-02T03:49:04.729Z,6.80
2018-10-02T03:51:33.053Z,6.80
2018-10-02T03:54:01.395Z,6.80
2018-10-02T03:56:29.755Z,6.80
2018-10-02T03:58:58.123Z,6.90
2018-10-02T04:01:26.452Z,6.90
2018-10-02T04:03:54.825Z,6.90
2018-10-02T04:06:23.173Z,6.90
2018-10-02T04:08:51.548Z,6.90
2018-10-02T04:11:19.893Z,6.90
2018-10-02T04:13:48.227Z,6.90
2018-10-02T04:16:16.564Z,6.80
2018-10-02T04:18:44.920Z,6.80
2018-10-02T04:21:13.287Z,6.80
2018-10-02T04:23:41.676Z,6.80
2018-10-02T04:26:10.025Z,6.80
2018-10-02T04:28:38.447Z,6.70
2018-10-02T04:31:06.805Z,6.70
2018-10-02T04:33:35.202Z,6.70
2018-10-02T04:36:03.521Z,6.70
2018-10-02T04:38:32.162Z,6.70
2018-10-02T04:41:00.480Z,6.80
2018-10-02T04:43:28.836Z,6.70
2018-10-02T04:45:57.196Z,6.80
2018-10-02T04:48:25.544Z,6.70
2018-10-02T04:50:53.884Z,6.70
2018-10-02T04:53:22.240Z,6.70
2018-10-02T04:55:50.746Z,6.70
2018-10-02T04:58:19.056Z,6.60
2018-10-02T05:00:47.408Z,6.60
2018-10-02T05:03:15.761Z,6.60
2018-10-02T05:05:44.138Z,6.60
2018-10-02T05:08:12.527Z,6.70
2018-10-02T05:10:40.872Z,6.70
2018-10-02T05:13:09.261Z,6.60
2018-10-02T05:15:37.633Z,6.60
2018-10-02T05:18:06.002Z,6.60
2018-10-02T05:20:34.510Z,6.70
2018-10-02T05:23:02.861Z,6.60
2018-10-02T05:25:31.168Z,6.70
2018-10-02T05:27:59.604Z,6.70
2018-10-02T05:30:27.923Z,6.70
2018-10-02T05:32:56.360Z,6.70
2018-10-02T05:35:24.673Z,6.80
2018-10-02T05:37:53.117Z,6.70
2018-10-02T05:42:02.824Z,6.70
2018-10-02T05:44:31.206Z,6.80
2018-10-02T05:46:59.556Z,6.80
2018-10-02T05:49:28.058Z,6.90
2018-10-02T05:51:56.384Z,6.90
2018-10-02T05:54:24.734Z,7.00
2018-10-02T05:56:53.649Z,6.90
2018-10-02T05:59:22.032Z,6.90
2018-10-02T06:01:50.871Z,7.00
2018-10-02T06:04:19.329Z,7.10
2018-10-02T06:06:47.681Z,7.10
2018-10-02T06:09:16.005Z,7.20
2018-10-02T06:11:44.384Z,7.20
2018-10-02T06:14:12.689Z,7.20
2018-10-02T06:16:41.362Z,7.20
2018-10-02T06:19:09.713Z,7.20
2018-10-02T06:21:38.097Z,7.30
2018-10-02T06:24:06.468Z,7.40
2018-10-02T06:26:34.841Z,7.50
2018-10-02T06:29:03.177Z,7.50
2018-10-02T06:31:31.536Z,7.50
2018-10-02T06:33:59.893Z,7.70
2018-10-02T06:36:28.232Z,7.60
2018-10-02T06:38:56.635Z,7.60
2018-10-02T06:41:24.957Z,7.70
2018-10-02T06:43:53.323Z,7.70
2018-10-02T06:46:21.676Z,7.80
2018-10-02T06:48:50.042Z,7.80
2018-10-02T06:51:18.462Z,7.90
2018-10-02T06:53:46.777Z,8.00
2018-10-02T06:56:15.147Z,8.10
2018-10-02T06:58:43.475Z,8.20
2018-10-02T07:01:11.822Z,8.10
2018-10-02T07:03:40.175Z,8.20
2018-10-02T07:06:08.513Z,8.20
2018-10-02T07:08:36.906Z,8.10
2018-10-02T07:11:06.268Z,8.10
2018-10-02T07:13:34.602Z,8.10
2018-10-02T07:16:02.977Z,8.10
2018-10-02T07:18:31.348Z,8.10
2018-10-02T07:20:59.761Z,8.10
2018-10-02T07:23:28.060Z,8.20
2018-10-02T07:25:56.397Z,8.30
2018-10-02T07:28:24.752Z,8.40
2018-10-02T07:30:53.116Z,8.60
2018-10-02T07:33:21.438Z,8.70
2018-10-02T07:35:49.797Z,8.90
2018-10-02T07:38:18.151Z,9.10
2018-10-02T07:40:46.467Z,9.00
2018-10-02T07:43:14.803Z,9.10
2018-10-02T07:45:43.097Z,9.20
2018-10-02T07:48:11.445Z,9.40
2018-10-02T07:50:39.835Z,9.30
2018-10-02T07:53:08.148Z,9.40
2018-10-02T07:55:36.521Z,9.50
2018-10-02T07:58:04.842Z,9.50
2018-10-02T08:00:33.165Z,9.60
2018-10-02T08:03:01.620Z,9.70
2018-10-02T08:05:29.885Z,9.80
2018-10-02T08:07:58.216Z,9.90
2018-10-02T08:10:26.605Z,10.20
2018-10-02T08:12:54.920Z,10.30
2018-10-02T08:15:23.242Z,10.30
2018-10-02T08:17:51.588Z,10.30
2018-10-02T08:20:19.953Z,10.30
2018-10-02T08:22:48.295Z,10.40
2018-10-02T08:25:16.672Z,10.60
2018-10-02T08:27:45.046Z,10.80
2018-10-02T08:30:13.569Z,10.90
2018-10-02T08:32:41.968Z,10.90
2018-10-02T08:35:10.379Z,11.00
2018-10-02T08:37:38.713Z,11.10
2018-10-02T08:40:07.291Z,11.10
2018-10-02T08:42:35.605Z,11.10
2018-10-02T08:45:04.096Z,11.20
2018-10-02T08:47:32.441Z,11.10
2018-10-02T08:50:00.719Z,11.20
2018-10-02T08:52:29.052Z,11.10
2018-10-02T08:54:57.376Z,11.30
2018-10-02T08:57:25.789Z,11.30
2018-10-02T08:59:54.118Z,11.40
2018-10-02T09:02:22.425Z,11.50
2018-10-02T09:04:50.783Z,11.60
2018-10-02T09:07:19.179Z,11.70
2018-10-02T09:09:47.525Z,11.60
2018-10-02T09:12:15.920Z,11.90
2018-10-02T09:14:44.325Z,11.90
2018-10-02T09:17:12.677Z,11.90
2018-10-02T09:19:41.028Z,11.90
2018-10-02T09:22:09.349Z,12.00
2018-10-02T09:24:37.729Z,12.30
2018-10-02T09:27:06.218Z,12.60
2018-10-02T09:29:38.808Z,12.80
2018-10-02T09:32:12.423Z,12.70
2018-10-02T09:34:46.204Z,12.70
2018-10-02T09:37:19.912Z,12.70
2018-10-02T09:39:53.780Z,12.40
2018-10-02T09:42:27.504Z,12.40
2018-10-02T09:44:55.900Z,12.10
2018-10-02T09:47:26.032Z,12.20
2018-10-02T09:49:54.422Z,12.30
2018-10-02T09:52:22.701Z,12.20
2018-10-02T09:54:55.578Z,12.30
2018-10-02T09:57:23.958Z,12.30
2018-10-02T09:59:52.716Z,12.20
2018-10-02T10:02:26.523Z,12.10
2018-10-02T10:04:54.825Z,12.20
2018-10-02T10:07:23.184Z,12.30
2018-10-02T10:09:51.634Z,12.50
2018-10-02T10:12:19.978Z,12.40
2018-10-02T10:14:48.361Z,12.50
2018-10-02T10:17:16.810Z,12.60
2018-10-02T10:19:45.102Z,12.60
2018-10-02T10:22:13.537Z,12.60
2018-10-02T10:24:41.881Z,12.70
2018-10-02T10:27:10.392Z,12.80
2018-10-02T10:29:39.382Z,12.90
2018-10-02T10:32:07.905Z,13.30
2018-10-02T10:34:36.235Z,13.50
2018-10-02T10:37:04.554Z,13.70
2018-10-02T10:39:33.003Z,13.70
2018-10-02T10:42:01.366Z,13.50
2018-10-02T10:44:29.699Z,13.40
2018-10-02T10:46:58.058Z,13.60
2018-10-02T10:49:26.417Z,13.50
2018-10-02T10:51:54.766Z,13.40
2018-10-02T10:54:23.173Z,13.30
2018-10-02T10:56:51.548Z,13.30
2018-10-02T10:59:19.963Z,13.10
2018-10-02T11:01:48.288Z,13.00
2018-10-02T11:04:16.689Z,13.00
2018-10-02T11:06:45.049Z,13.00
2018-10-02T11:09:13.389Z,13.20
2018-10-02T11:11:41.768Z,13.10
2018-10-02T11:14:10.077Z,13.00
2018-10-02T11:16:38.466Z,12.80
2018-10-02T11:19:06.864Z,12.60
2018-10-02T11:21:35.281Z,12.80
2018-10-02T11:24:03.722Z,12.90
2018-10-02T11:26:32.104Z,12.90
2018-10-02T11:29:00.528Z,13.00
2018-10-02T11:31:28.991Z,13.10
2018-10-02T11:33:57.447Z,13.00
2018-10-02T11:36:25.817Z,12.90
2018-10-02T11:38:54.208Z,12.90
2018-10-02T11:41:22.545Z,12.60
2018-10-02T11:43:50.906Z,12.40
2018-10-02T11:46:19.279Z,12.40
2018-10-02T11:48:47.681Z,12.20
2018-10-02T11:51:16.023Z,12.10
2018-10-02T11:53:44.373Z,12.20
2018-10-02T11:56:12.779Z,12.10
2018-10-02T11:58:41.085Z,12.00
2018-10-02T12:01:09.638Z,11.90
2018-10-02T12:03:37.963Z,11.90
2018-10-02T12:06:06.304Z,11.90
2018-10-02T12:08:34.650Z,12.00
2018-10-02T12:11:03.267Z,11.80
2018-10-02T12:13:31.750Z,11.80
2018-10-02T12:16:00.008Z,11.70
2018-10-02T12:18:28.360Z,11.70
2018-10-02T12:20:56.746Z,11.70
2018-10-02T12:23:25.148Z,11.70
2018-10-02T12:25:53.504Z,11.70
2018-10-02T12:28:21.832Z,11.80
2018-10-02T12:30:50.229Z,11.80
2018-10-02T12:33:18.572Z,11.80
2018-10-02T12:35:46.897Z,11.70
2018-10-02T12:38:15.240Z,11.80
2018-10-02T12:40:43.622Z,11.80
2018-10-02T12:43:12.020Z,11.80
2018-10-02T12:45:40.437Z,11.90
2018-10-02T12:48:08.861Z,11.90
2018-10-02T12:50:37.237Z,12.10
2018-10-02T12:53:05.643Z,12.10
2018-10-02T12:55:33.939Z,12.20
2018-10-02T12:58:02.289Z,12.20
2018-10-02T13:00:30.604Z,12.20
2018-10-02T13:02:59.021Z,12.30
2018-10-02T13:05:27.388Z,12.30
2018-10-02T13:07:55.745Z,12.40
2018-10-02T13:10:24.143Z,12.20
2018-10-02T13:12:52.473Z,12.20
2018-10-02T13:15:20.820Z,12.30
2018-10-02T13:17:49.181Z,12.20
2018-10-02T13:20:17.514Z,12.20
2018-10-02T13:22:45.919Z,12.20
2018-10-02T13:25:14.340Z,12.40
2018-10-02T13:27:42.619Z,12.40
2018-10-02T13:30:10.960Z,12.40
2018-10-02T13:32:39.343Z,12.40
2018-10-02T13:35:07.700Z,12.50
2018-10-02T13:37:36.131Z,12.50
2018-10-02T13:40:04.489Z,12.50
2018-10-02T13:42:32.864Z,12.50
2018-10-02T13:45:01.189Z,12.50
2018-10-02T13:47:29.945Z,12.60
2018-10-02T13:49:58.272Z,12.50
2018-10-02T13:52:26.620Z,12.60
2018-10-02T13:54:55.080Z,12.50
2018-10-02T13:57:23.440Z,12.50
2018-10-02T13:59:51.812Z,12.40
2018-10-02T14:02:20.153Z,12.50
2018-10-02T14:04:48.588Z,12.50
2018-10-02T14:07:16.973Z,12.50
2018-10-02T14:09:45.345Z,12.50
2018-10-02T14:12:13.789Z,12.50
2018-10-02T14:14:42.172Z,12.50
2018-10-02T14:17:10.680Z,12.40
2018-10-02T14:19:39.255Z,12.50
2018-10-02T14:22:07.626Z,12.40
2018-10-02T14:24:36.048Z,12.40
2018-10-02T14:27:04.414Z,12.40
2018-10-02T14:29:32.750Z,12.40
2018-10-02T14:32:01.139Z,12.50
2018-10-02T14:34:29.597Z,12.40
2018-10-02T14:36:57.948Z,12.50
2018-10-02T14:39:27.356Z,12.40
2018-10-02T14:41:55.691Z,12.50
2018-10-02T14:44:24.048Z,12.50
2018-10-02T14:46:52.460Z,12.40
2018-10-02T14:49:20.938Z,12.40
2018-10-02T14:51:49.275Z,12.50
2018-10-02T14:54:17.680Z,12.40
2018-10-02T14:56:46.636Z,12.50
2018-10-02T14:59:15.448Z,12.40
2018-10-02T15:01:43.996Z,12.40
2018-10-02T15:04:12.405Z,12.40
2018-10-02T15:06:40.844Z,12.40
2018-10-02T15:09:09.396Z,12.50
2018-10-02T15:11:38.318Z,12.40
2018-10-02T15:14:08.396Z,12.40
2018-10-02T15:16:37.404Z,12.40
2018-10-02T15:19:05.952Z,12.40
2018-10-02T15:21:34.330Z,12.40
2018-10-02T15:24:02.712Z,12.30
2018-10-02T15:26:31.118Z,12.20
2018-10-02T15:28:59.466Z,12.30
2018-10-02T15:31:27.863Z,12.30
2018-10-02T15:33:57.244Z,12.10
2018-10-02T15:36:25.625Z,12.00
2018-10-02T15:38:54.011Z,12.00
2018-10-02T15:41:22.379Z,12.00
2018-10-02T15:43:50.752Z,12.10
2018-10-02T15:46:19.121Z,12.10
2018-10-02T15:48:47.517Z,12.20
2018-10-02T15:51:15.876Z,12.10
2018-10-02T15:53:44.624Z,12.20
2018-10-02T15:56:13.005Z,12.10
2018-10-02T15:58:41.516Z,12.10
2018-10-02T16:01:09.951Z,12.00
2018-10-02T16:03:38.301Z,12.10
2018-10-02T16:06:06.717Z,12.10
2018-10-02T16:08:35.128Z,12.10
2018-10-02T16:11:03.526Z,12.10
2018-10-02T16:13:31.878Z,12.10
2018-10-02T16:16:00.245Z,12.10
2018-10-02T16:18:28.702Z,12.20
2018-10-02T16:20:57.085Z,12.20
2018-10-02T16:23:25.412Z,12.20
2018-10-02T16:25:53.788Z,12.10
2018-10-02T16:28:22.254Z,12.10
2018-10-02T16:30:50.798Z,12.10
2018-10-02T16:33:19.146Z,12.10
2018-10-02T16:35:47.532Z,12.20
2018-10-02T16:38:15.921Z,12.20
2018-10-02T16:40:44.337Z,12.20
2018-10-02T16:43:12.740Z,12.20
2018-10-02T16:45:41.135Z,12.20
2018-10-02T16:48:09.494Z,12.20
2018-10-02T16:50:37.885Z,12.20
2018-10-02T16:53:06.241Z,12.20
2018-10-02T16:55:34.626Z,12.10
2018-10-02T16:58:03.587Z,12.20
2018-10-02T17:00:32.059Z,12.10
2018-10-02T17:03:00.534Z,12.10
2018-10-02T17:05:28.976Z,12.10
2018-10-02T17:07:57.317Z,12.20
2018-10-02T17:10:25.720Z,12.20
2018-10-02T17:12:54.142Z,12.20
2018-10-02T17:15:22.530Z,12.20
2018-10-02T17:17:50.970Z,12.20
2018-10-02T17:20:19.360Z,12.20
2018-10-02T17:22:47.747Z,12.20
2018-10-02T17:25:16.142Z,12.10
2018-10-02T17:27:44.531Z,12.20
2018-10-02T17:30:12.893Z,12.20
2018-10-02T17:32:41.271Z,12.30
2018-10-02T17:35:09.663Z,12.20
2018-10-02T17:37:38.040Z,12.20
2018-10-02T17:40:06.621Z,12.20
2018-10-02T17:42:34.951Z,12.20
2018-10-02T17:45:03.335Z,12.20
2018-10-02T17:47:31.748Z,12.20
2018-10-02T17:50:00.125Z,12.20
2018-10-02T17:52:28.510Z,12.20
2018-10-02T17:54:56.926Z,12.20
2018-10-02T17:57:25.216Z,12.20
2018-10-02T17:59:53.579Z,12.10
2018-10-02T18:02:22.803Z,12.20
2018-10-02T18:04:51.243Z,12.20
2018-10-02T18:07:19.694Z,12.20
2018-10-02T18:09:48.294Z,12.20
2018-10-02T18:12:16.777Z,12.20
2018-10-02T18:14:45.782Z,12.30
2018-10-02T18:17:18.175Z,12.20
2018-10-02T18:19:46.811Z,12.30
2018-10-02T18:22:15.192Z,12.30
2018-10-02T18:24:43.561Z,12.30
2018-10-02T18:27:35.501Z,12.30
2018-10-02T18:30:03.882Z,12.30
2018-10-02T18:32:32.277Z,12.40
2018-10-02T18:35:00.697Z,12.30
2018-10-02T18:37:29.072Z,12.40
2018-10-02T18:39:57.449Z,12.30
2018-10-02T18:42:25.839Z,12.30
2018-10-02T18:44:54.279Z,12.30
2018-10-02T18:47:22.797Z,12.30
2018-10-02T18:49:51.464Z,12.20
2018-10-02T18:52:20.057Z,12.30
2018-10-02T18:54:48.646Z,12.20
2018-10-02T18:57:17.168Z,12.20
2018-10-02T18:59:45.727Z,12.30
2018-10-02T19:02:14.174Z,12.40
2018-10-02T19:04:42.611Z,12.30
2018-10-02T19:07:11.403Z,12.40
2018-10-02T19:09:40.183Z,12.30
2018-10-02T19:12:11.323Z,12.40
2018-10-02T19:14:40.000Z,12.30
2018-10-02T19:17:08.449Z,12.30
2018-10-02T19:19:42.453Z,12.30
2018-10-02T19:22:11.091Z,12.40
2018-10-02T19:24:39.936Z,12.40
2018-10-02T19:27:08.509Z,12.40
2018-10-02T19:29:37.016Z,12.40
2018-10-02T19:32:10.543Z,12.40
2018-10-02T19:34:39.089Z,12.30
2018-10-02T19:37:12.708Z,12.30
2018-10-02T19:39:41.373Z,12.30
2018-10-02T19:42:09.977Z,12.30
2018-10-02T19:44:38.452Z,12.30
2018-10-02T19:47:06.913Z,12.30
2018-10-02T19:49:36.132Z,12.30
2018-10-02T19:52:11.046Z,12.40
2018-10-02T19:54:39.510Z,12.30
2018-10-02T19:57:09.560Z,12.40
2018-10-02T19:59:38.090Z,12.40
2018-10-02T20:02:06.776Z,12.30
2018-10-02T20:04:35.421Z,12.20
2018-10-02T20:07:03.821Z,12.30
2018-10-02T20:09:32.265Z,12.20
2018-10-02T20:12:00.628Z,12.20
2018-10-02T20:14:29.064Z,12.20
2018-10-02T20:16:57.451Z,12.30
2018-10-02T20:19:25.824Z,12.30
2018-10-02T20:21:54.170Z,12.30
2018-10-02T20:24:22.576Z,12.30
2018-10-02T20:26:51.014Z,12.20
2018-10-02T20:29:19.364Z,12.30
2018-10-02T20:31:49.621Z,12.40
2018-10-02T20:34:18.064Z,12.30
2018-10-02T20:36:46.650Z,12.30
2018-10-02T20:39:15.024Z,12.30
2018-10-02T20:41:43.448Z,12.30
2018-10-02T20:44:11.864Z,12.30
2018-10-02T20:46:40.231Z,12.30
2018-10-02T20:49:08.690Z,12.20
2018-10-02T20:51:36.973Z,12.20
2018-10-02T20:54:05.362Z,12.30
2018-10-02T20:56:33.741Z,12.30
2018-10-02T20:59:02.145Z,12.30
2018-10-02T21:01:30.520Z,12.20
2018-10-02T21:03:58.926Z,12.20
2018-10-02T21:06:27.383Z,12.20
2018-10-02T21:08:55.780Z,12.20
2018-10-02T21:11:24.148Z,12.10
2018-10-02T21:13:52.512Z,12.10
2018-10-02T21:16:20.920Z,12.10
2018-10-02T21:18:49.820Z,12.00
2018-10-02T21:21:18.343Z,11.90
2018-10-02T21:23:46.757Z,11.90
2018-10-02T21:26:15.177Z,11.70
2018-10-02T21:28:43.685Z,11.70
2018-10-02T21:31:12.044Z,11.70
2018-10-02T21:33:40.531Z,11.70
2018-10-02T21:36:09.013Z,11.70
2018-10-02T21:38:37.625Z,11.70
2018-10-02T21:41:06.058Z,11.70
2018-10-02T21:43:34.559Z,11.70
2018-10-02T21:46:02.940Z,11.70
2018-10-02T21:48:31.511Z,11.70
2018-10-02T21:50:59.861Z,11.60
2018-10-02T21:53:28.333Z,11.60
2018-10-02T21:55:56.704Z,11.70
2018-10-02T21:58:25.071Z,11.70
2018-10-02T22:00:57.659Z,11.80
2018-10-02T22:03:26.044Z,11.80
2018-10-02T22:05:54.442Z,11.80
2018-10-02T22:08:22.962Z,11.80
2018-10-02T22:10:51.340Z,11.90
2018-10-02T22:13:19.789Z,11.90
2018-10-02T22:15:48.265Z,11.90
2018-10-02T22:18:16.704Z,11.90
2018-10-02T22:20:45.265Z,11.90
2018-10-02T22:23:13.766Z,11.90
2018-10-02T22:25:42.268Z,11.90
2018-10-02T22:28:10.755Z,11.90
2018-10-02T22:30:39.251Z,11.90
2018-10-02T22:33:07.642Z,12.00
2018-10-02T22:35:35.995Z,11.90
2018-10-02T22:38:04.381Z,11.90
2018-10-02T22:40:32.758Z,12.00
2018-10-02T22:43:01.209Z,12.00
2018-10-02T22:45:29.734Z,11.90
2018-10-02T22:47:58.118Z,12.00
2018-10-02T22:50:26.619Z,11.90
2018-10-02T22:52:55.088Z,12.00
2018-10-02T22:55:23.505Z,12.00
2018-10-02T22:57:51.856Z,12.00
2018-10-02T23:00:20.240Z,12.00
2018-10-02T23:02:48.681Z,12.00
2018-10-02T23:05:17.132Z,12.00
2018-10-02T23:07:45.598Z,12.00
2018-10-02T23:10:14.078Z,12.00
2018-10-02T23:12:42.491Z,12.00
2018-10-02T23:15:11.026Z,12.00
2018-10-02T23:17:39.436Z,12.00
2018-10-02T23:20:07.903Z,12.00
2018-10-02T23:22:36.279Z,12.00
2018-10-02T23:25:04.663Z,12.00
2018-10-02T23:27:33.198Z,12.00
2018-10-02T23:30:01.602Z,12.00
2018-10-02T23:32:30.046Z,11.90
2018-10-02T23:34:58.589Z,12.00
2018-10-02T23:37:26.961Z,12.00
2018-10-02T23:39:55.284Z,11.90
2018-10-02T23:42:23.792Z,11.90
2018-10-02T23:44:52.132Z,11.90
2018-10-02T23:47:20.561Z,11.90
2018-10-02T23:49:48.944Z,11.80
2018-10-02T23:52:17.360Z,11.80
2018-10-02T23:54:45.884Z,11.90
2018-10-02T23:57:14.352Z,11.80
2018-10-02T23:59:42.733Z,11.80
